sensor_id;sensor_type;location;lat;lon;timestamp;P1;durP1;ratioP1;P2;durP2;ratioP2
63016;SDS011;50274;45.640;11.756;2022-07-04T00:00:45;7.70;;;3.70;;
63016;SDS011;50274;45.640;11.756;2022-07-04T00:03:11;8.33;;;3.77;;
63016;SDS011;50274;45.640;11.756;2022-07-04T00:05:37;6.43;;;4.50;;
63016;SDS011;50274;45.640;11.756;2022-07-04T00:08:03;7.50;;;3.58;;
63016;SDS011;50274;45.640;11.756;2022-07-04T00:10:29;6.43;;;3.47;;
63016;SDS011;50274;45.640;11.756;2022-07-04T00:12:55;6.50;;;3.27;;
63016;SDS011;50274;45.640;11.756;2022-07-04T00:15:21;6.15;;;3.60;;
63016;SDS011;50274;45.640;11.756;2022-07-04T00:17:48;7.28;;;3.45;;
63016;SDS011;50274;45.640;11.756;2022-07-04T00:20:14;7.40;;;3.17;;
63016;SDS011;50274;45.640;11.756;2022-07-04T00:22:40;5.80;;;2.87;;
63016;SDS011;50274;45.640;11.756;2022-07-04T00:25:06;8.30;;;3.10;;
63016;SDS011;50274;45.640;11.756;2022-07-04T00:27:32;7.30;;;3.25;;
63016;SDS011;50274;45.640;11.756;2022-07-04T00:29:58;5.90;;;3.07;;
63016;SDS011;50274;45.640;11.756;2022-07-04T00:32:23;9.80;;;3.50;;
63016;SDS011;50274;45.640;11.756;2022-07-04T00:34:49;7.33;;;3.23;;
63016;SDS011;50274;45.640;11.756;2022-07-04T00:37:15;6.67;;;3.33;;
63016;SDS011;50274;45.640;11.756;2022-07-04T00:39:41;7.22;;;3.30;;
63016;SDS011;50274;45.640;11.756;2022-07-04T00:42:07;7.57;;;3.50;;
63016;SDS011;50274;45.640;11.756;2022-07-04T00:44:33;7.57;;;3.15;;
63016;SDS011;50274;45.640;11.756;2022-07-04T00:47:01;6.88;;;3.60;;
63016;SDS011;50274;45.640;11.756;2022-07-04T00:49:29;8.13;;;3.33;;
63016;SDS011;50274;45.640;11.756;2022-07-04T00:51:54;6.75;;;3.20;;
63016;SDS011;50274;45.640;11.756;2022-07-04T00:54:21;5.97;;;3.30;;
63016;SDS011;50274;45.640;11.756;2022-07-04T00:56:51;6.32;;;3.13;;
63016;SDS011;50274;45.640;11.756;2022-07-04T00:59:19;6.38;;;3.10;;
63016;SDS011;50274;45.640;11.756;2022-07-04T01:01:45;7.63;;;3.25;;
63016;SDS011;50274;45.640;11.756;2022-07-04T01:04:10;8.20;;;3.50;;
63016;SDS011;50274;45.640;11.756;2022-07-04T01:06:37;7.28;;;3.42;;
63016;SDS011;50274;45.640;11.756;2022-07-04T01:09:03;8.48;;;2.95;;
63016;SDS011;50274;45.640;11.756;2022-07-04T01:11:30;6.68;;;3.38;;
63016;SDS011;50274;45.640;11.756;2022-07-04T01:13:56;6.67;;;2.90;;
63016;SDS011;50274;45.640;11.756;2022-07-04T01:16:26;8.40;;;3.05;;
63016;SDS011;50274;45.640;11.756;2022-07-04T01:18:53;5.75;;;3.00;;
63016;SDS011;50274;45.640;11.756;2022-07-04T01:21:20;7.05;;;3.40;;
63016;SDS011;50274;45.640;11.756;2022-07-04T01:23:46;6.22;;;3.13;;
63016;SDS011;50274;45.640;11.756;2022-07-04T01:26:12;9.30;;;2.97;;
63016;SDS011;50274;45.640;11.756;2022-07-04T01:28:38;6.57;;;3.00;;
63016;SDS011;50274;45.640;11.756;2022-07-04T01:31:05;7.65;;;2.88;;
63016;SDS011;50274;45.640;11.756;2022-07-04T01:33:31;7.70;;;3.00;;
63016;SDS011;50274;45.640;11.756;2022-07-04T01:35:58;5.57;;;2.78;;
63016;SDS011;50274;45.640;11.756;2022-07-04T01:38:24;5.70;;;2.30;;
63016;SDS011;50274;45.640;11.756;2022-07-04T01:40:50;6.38;;;2.65;;
63016;SDS011;50274;45.640;11.756;2022-07-04T01:43:16;7.43;;;2.70;;
63016;SDS011;50274;45.640;11.756;2022-07-04T01:45:42;7.20;;;2.80;;
63016;SDS011;50274;45.640;11.756;2022-07-04T01:48:09;7.57;;;3.20;;
63016;SDS011;50274;45.640;11.756;2022-07-04T01:50:36;6.97;;;3.22;;
63016;SDS011;50274;45.640;11.756;2022-07-04T01:53:03;7.45;;;2.88;;
63016;SDS011;50274;45.640;11.756;2022-07-04T01:55:29;5.13;;;2.90;;
63016;SDS011;50274;45.640;11.756;2022-07-04T01:57:55;6.57;;;2.63;;
63016;SDS011;50274;45.640;11.756;2022-07-04T02:00:22;5.70;;;2.50;;
63016;SDS011;50274;45.640;11.756;2022-07-04T02:03:07;6.70;;;2.88;;
63016;SDS011;50274;45.640;11.756;2022-07-04T02:05:33;7.78;;;2.70;;
63016;SDS011;50274;45.640;11.756;2022-07-04T02:07:59;5.80;;;2.50;;
63016;SDS011;50274;45.640;11.756;2022-07-04T02:10:25;6.07;;;2.83;;
63016;SDS011;50274;45.640;11.756;2022-07-04T02:12:51;7.65;;;2.83;;
63016;SDS011;50274;45.640;11.756;2022-07-04T02:15:26;8.77;;;3.20;;
63016;SDS011;50274;45.640;11.756;2022-07-04T02:18:06;5.90;;;2.63;;
63016;SDS011;50274;45.640;11.756;2022-07-04T02:20:33;7.90;;;2.95;;
63016;SDS011;50274;45.640;11.756;2022-07-04T02:22:59;5.07;;;2.37;;
63016;SDS011;50274;45.640;11.756;2022-07-04T02:25:26;7.30;;;2.65;;
63016;SDS011;50274;45.640;11.756;2022-07-04T02:27:52;7.05;;;2.58;;
63016;SDS011;50274;45.640;11.756;2022-07-04T02:30:18;6.70;;;2.47;;
63016;SDS011;50274;45.640;11.756;2022-07-04T02:32:44;4.53;;;2.13;;
63016;SDS011;50274;45.640;11.756;2022-07-04T02:35:10;5.03;;;2.30;;
63016;SDS011;50274;45.640;11.756;2022-07-04T02:37:36;4.97;;;2.30;;
63016;SDS011;50274;45.640;11.756;2022-07-04T02:40:03;6.77;;;1.87;;
63016;SDS011;50274;45.640;11.756;2022-07-04T02:42:30;9.13;;;2.30;;
63016;SDS011;50274;45.640;11.756;2022-07-04T02:44:57;5.53;;;2.42;;
63016;SDS011;50274;45.640;11.756;2022-07-04T02:47:23;5.28;;;2.15;;
63016;SDS011;50274;45.640;11.756;2022-07-04T02:49:48;4.43;;;2.10;;
63016;SDS011;50274;45.640;11.756;2022-07-04T02:52:14;4.00;;;1.85;;
63016;SDS011;50274;45.640;11.756;2022-07-04T02:54:40;6.88;;;2.10;;
63016;SDS011;50274;45.640;11.756;2022-07-04T02:57:07;5.43;;;2.50;;
63016;SDS011;50274;45.640;11.756;2022-07-04T02:59:33;6.75;;;2.53;;
63016;SDS011;50274;45.640;11.756;2022-07-04T03:01:58;6.75;;;2.60;;
63016;SDS011;50274;45.640;11.756;2022-07-04T03:04:24;6.32;;;2.30;;
63016;SDS011;50274;45.640;11.756;2022-07-04T03:06:50;6.10;;;2.50;;
63016;SDS011;50274;45.640;11.756;2022-07-04T03:09:16;4.20;;;2.00;;
63016;SDS011;50274;45.640;11.756;2022-07-04T03:11:42;5.75;;;2.40;;
63016;SDS011;50274;45.640;11.756;2022-07-04T03:14:09;5.93;;;2.63;;
63016;SDS011;50274;45.640;11.756;2022-07-04T03:16:34;5.97;;;2.60;;
63016;SDS011;50274;45.640;11.756;2022-07-04T03:19:00;6.43;;;2.35;;
63016;SDS011;50274;45.640;11.756;2022-07-04T03:21:26;6.07;;;2.60;;
63016;SDS011;50274;45.640;11.756;2022-07-04T03:23:52;5.88;;;2.38;;
63016;SDS011;50274;45.640;11.756;2022-07-04T03:26:24;5.75;;;2.10;;
63016;SDS011;50274;45.640;11.756;2022-07-04T03:28:51;5.85;;;2.28;;
63016;SDS011;50274;45.640;11.756;2022-07-04T03:31:17;4.33;;;2.10;;
63016;SDS011;50274;45.640;11.756;2022-07-04T03:33:43;5.80;;;2.53;;
63016;SDS011;50274;45.640;11.756;2022-07-04T03:36:09;4.18;;;1.90;;
63016;SDS011;50274;45.640;11.756;2022-07-04T03:38:34;7.77;;;2.40;;
63016;SDS011;50274;45.640;11.756;2022-07-04T03:41:00;4.75;;;2.10;;
63016;SDS011;50274;45.640;11.756;2022-07-04T03:43:26;4.75;;;1.90;;
63016;SDS011;50274;45.640;11.756;2022-07-04T03:45:52;4.20;;;2.10;;
63016;SDS011;50274;45.640;11.756;2022-07-04T03:48:18;5.03;;;2.20;;
63016;SDS011;50274;45.640;11.756;2022-07-04T03:50:46;5.43;;;2.47;;
63016;SDS011;50274;45.640;11.756;2022-07-04T03:53:12;5.03;;;2.30;;
63016;SDS011;50274;45.640;11.756;2022-07-04T03:55:40;5.25;;;2.08;;
63016;SDS011;50274;45.640;11.756;2022-07-04T03:58:05;5.65;;;2.20;;
63016;SDS011;50274;45.640;11.756;2022-07-04T04:00:32;5.47;;;2.40;;
63016;SDS011;50274;45.640;11.756;2022-07-04T04:02:58;6.35;;;2.70;;
63016;SDS011;50274;45.640;11.756;2022-07-04T04:05:24;6.90;;;2.92;;
63016;SDS011;50274;45.640;11.756;2022-07-04T04:07:56;9.32;;;2.78;;
63016;SDS011;50274;45.640;11.756;2022-07-04T04:10:24;7.22;;;3.13;;
63016;SDS011;50274;45.640;11.756;2022-07-04T04:12:51;5.70;;;3.20;;
63016;SDS011;50274;45.640;11.756;2022-07-04T04:15:17;9.70;;;3.08;;
63016;SDS011;50274;45.640;11.756;2022-07-04T04:17:43;7.05;;;3.17;;
63016;SDS011;50274;45.640;11.756;2022-07-04T04:20:09;7.75;;;2.92;;
63016;SDS011;50274;45.640;11.756;2022-07-04T04:22:35;8.27;;;2.90;;
63016;SDS011;50274;45.640;11.756;2022-07-04T04:25:01;8.90;;;2.88;;
63016;SDS011;50274;45.640;11.756;2022-07-04T04:27:27;5.95;;;2.67;;
63016;SDS011;50274;45.640;11.756;2022-07-04T04:29:53;7.30;;;3.50;;
63016;SDS011;50274;45.640;11.756;2022-07-04T04:32:19;8.68;;;3.65;;
63016;SDS011;50274;45.640;11.756;2022-07-04T04:34:45;10.57;;;3.85;;
63016;SDS011;50274;45.640;11.756;2022-07-04T04:37:11;15.90;;;3.90;;
63016;SDS011;50274;45.640;11.756;2022-07-04T04:39:37;8.55;;;4.00;;
63016;SDS011;50274;45.640;11.756;2022-07-04T04:42:04;6.93;;;4.10;;
63016;SDS011;50274;45.640;11.756;2022-07-04T04:44:30;7.43;;;3.78;;
63016;SDS011;50274;45.640;11.756;2022-07-04T04:46:56;7.73;;;3.47;;
63016;SDS011;50274;45.640;11.756;2022-07-04T04:49:21;8.25;;;3.80;;
63016;SDS011;50274;45.640;11.756;2022-07-04T04:51:47;6.57;;;3.25;;
63016;SDS011;50274;45.640;11.756;2022-07-04T04:54:13;6.93;;;3.57;;
63016;SDS011;50274;45.640;11.756;2022-07-04T04:56:39;8.68;;;3.90;;
63016;SDS011;50274;45.640;11.756;2022-07-04T04:59:05;8.60;;;5.90;;
63016;SDS011;50274;45.640;11.756;2022-07-04T05:01:32;13.93;;;6.20;;
63016;SDS011;50274;45.640;11.756;2022-07-04T05:03:59;7.30;;;4.25;;
63016;SDS011;50274;45.640;11.756;2022-07-04T05:06:24;7.65;;;4.05;;
63016;SDS011;50274;45.640;11.756;2022-07-04T05:08:51;17.60;;;10.85;;
63016;SDS011;50274;45.640;11.756;2022-07-04T05:11:16;12.43;;;8.77;;
63016;SDS011;50274;45.640;11.756;2022-07-04T05:13:42;9.00;;;6.20;;
63016;SDS011;50274;45.640;11.756;2022-07-04T05:16:08;10.85;;;4.97;;
63016;SDS011;50274;45.640;11.756;2022-07-04T05:18:34;9.43;;;4.40;;
63016;SDS011;50274;45.640;11.756;2022-07-04T05:21:00;8.60;;;4.15;;
63016;SDS011;50274;45.640;11.756;2022-07-04T05:23:26;9.02;;;3.78;;
63016;SDS011;50274;45.640;11.756;2022-07-04T05:25:52;5.87;;;3.13;;
63016;SDS011;50274;45.640;11.756;2022-07-04T05:28:18;7.70;;;3.30;;
63016;SDS011;50274;45.640;11.756;2022-07-04T05:30:44;5.80;;;3.10;;
63016;SDS011;50274;45.640;11.756;2022-07-04T05:33:09;6.53;;;2.60;;
63016;SDS011;50274;45.640;11.756;2022-07-04T05:35:36;6.77;;;2.50;;
63016;SDS011;50274;45.640;11.756;2022-07-04T05:38:02;6.88;;;3.00;;
63016;SDS011;50274;45.640;11.756;2022-07-04T05:40:28;8.18;;;2.60;;
63016;SDS011;50274;45.640;11.756;2022-07-04T05:42:54;14.77;;;5.47;;
63016;SDS011;50274;45.640;11.756;2022-07-04T05:45:21;15.63;;;6.30;;
63016;SDS011;50274;45.640;11.756;2022-07-04T05:47:47;27.17;;;5.83;;
63016;SDS011;50274;45.640;11.756;2022-07-04T05:50:13;9.75;;;4.18;;
63016;SDS011;50274;45.640;11.756;2022-07-04T05:52:39;7.88;;;3.30;;
63016;SDS011;50274;45.640;11.756;2022-07-04T05:55:05;10.83;;;3.23;;
63016;SDS011;50274;45.640;11.756;2022-07-04T05:57:32;7.22;;;2.50;;
63016;SDS011;50274;45.640;11.756;2022-07-04T05:59:58;8.18;;;2.58;;
63016;SDS011;50274;45.640;11.756;2022-07-04T06:02:24;6.15;;;2.20;;
63016;SDS011;50274;45.640;11.756;2022-07-04T06:04:50;6.47;;;2.80;;
63016;SDS011;50274;45.640;11.756;2022-07-04T06:07:16;5.95;;;2.30;;
63016;SDS011;50274;45.640;11.756;2022-07-04T06:09:42;6.15;;;2.65;;
63016;SDS011;50274;45.640;11.756;2022-07-04T06:12:09;6.80;;;2.60;;
63016;SDS011;50274;45.640;11.756;2022-07-04T06:14:35;6.17;;;2.27;;
63016;SDS011;50274;45.640;11.756;2022-07-04T06:17:01;6.30;;;3.17;;
63016;SDS011;50274;45.640;11.756;2022-07-04T06:19:27;6.68;;;3.60;;
63016;SDS011;50274;45.640;11.756;2022-07-04T06:21:52;7.03;;;3.50;;
63016;SDS011;50274;45.640;11.756;2022-07-04T06:24:18;8.93;;;3.08;;
63016;SDS011;50274;45.640;11.756;2022-07-04T06:26:44;6.65;;;2.50;;
63016;SDS011;50274;45.640;11.756;2022-07-04T06:29:10;16.80;;;12.20;;
63016;SDS011;50274;45.640;11.756;2022-07-04T06:31:36;28.23;;;21.77;;
63016;SDS011;50274;45.640;11.756;2022-07-04T06:34:09;22.60;;;16.48;;
63016;SDS011;50274;45.640;11.756;2022-07-04T06:37:05;14.85;;;10.30;;
63016;SDS011;50274;45.640;11.756;2022-07-04T06:39:46;11.07;;;6.73;;
63016;SDS011;50274;45.640;11.756;2022-07-04T06:42:29;6.57;;;4.15;;
63016;SDS011;50274;45.640;11.756;2022-07-04T06:45:09;11.65;;;8.95;;
63016;SDS011;50274;45.640;11.756;2022-07-04T06:47:36;7.07;;;4.00;;
63016;SDS011;50274;45.640;11.756;2022-07-04T06:50:02;6.25;;;3.60;;
63016;SDS011;50274;45.640;11.756;2022-07-04T06:52:28;6.93;;;2.90;;
63016;SDS011;50274;45.640;11.756;2022-07-04T06:54:54;6.75;;;2.63;;
63016;SDS011;50274;45.640;11.756;2022-07-04T06:57:19;6.18;;;2.50;;
63016;SDS011;50274;45.640;11.756;2022-07-04T06:59:45;5.27;;;2.27;;
63016;SDS011;50274;45.640;11.756;2022-07-04T07:02:11;5.50;;;1.98;;
63016;SDS011;50274;45.640;11.756;2022-07-04T07:04:37;5.37;;;2.23;;
63016;SDS011;50274;45.640;11.756;2022-07-04T07:07:03;5.67;;;2.20;;
63016;SDS011;50274;45.640;11.756;2022-07-04T07:09:29;5.63;;;2.30;;
63016;SDS011;50274;45.640;11.756;2022-07-04T07:11:55;6.07;;;2.10;;
63016;SDS011;50274;45.640;11.756;2022-07-04T07:14:21;5.50;;;2.27;;
63016;SDS011;50274;45.640;11.756;2022-07-04T07:16:46;7.97;;;2.53;;
63016;SDS011;50274;45.640;11.756;2022-07-04T07:19:12;6.20;;;2.10;;
63016;SDS011;50274;45.640;11.756;2022-07-04T07:21:38;6.78;;;2.20;;
63016;SDS011;50274;45.640;11.756;2022-07-04T07:24:04;5.33;;;2.13;;
63016;SDS011;50274;45.640;11.756;2022-07-04T07:26:30;7.00;;;2.08;;
63016;SDS011;50274;45.640;11.756;2022-07-04T07:28:55;5.18;;;2.05;;
63016;SDS011;50274;45.640;11.756;2022-07-04T07:31:21;4.70;;;1.70;;
63016;SDS011;50274;45.640;11.756;2022-07-04T07:33:47;4.05;;;1.90;;
63016;SDS011;50274;45.640;11.756;2022-07-04T07:36:13;4.93;;;1.75;;
63016;SDS011;50274;45.640;11.756;2022-07-04T07:38:39;8.47;;;2.37;;
63016;SDS011;50274;45.640;11.756;2022-07-04T07:41:08;4.18;;;1.80;;
63016;SDS011;50274;45.640;11.756;2022-07-04T07:43:35;4.82;;;2.10;;
63016;SDS011;50274;45.640;11.756;2022-07-04T07:46:01;5.07;;;2.40;;
63016;SDS011;50274;45.640;11.756;2022-07-04T07:48:30;5.33;;;2.30;;
63016;SDS011;50274;45.640;11.756;2022-07-04T07:50:56;7.05;;;2.40;;
63016;SDS011;50274;45.640;11.756;2022-07-04T07:53:21;4.63;;;2.40;;
63016;SDS011;50274;45.640;11.756;2022-07-04T07:55:47;6.00;;;2.03;;
63016;SDS011;50274;45.640;11.756;2022-07-04T07:58:13;6.32;;;2.22;;
63016;SDS011;50274;45.640;11.756;2022-07-04T08:00:39;5.83;;;2.20;;
63016;SDS011;50274;45.640;11.756;2022-07-04T08:03:05;5.53;;;2.00;;
63016;SDS011;50274;45.640;11.756;2022-07-04T08:05:49;6.32;;;2.33;;
63016;SDS011;50274;45.640;11.756;2022-07-04T08:08:15;4.40;;;2.00;;
63016;SDS011;50274;45.640;11.756;2022-07-04T08:10:41;5.60;;;2.20;;
63016;SDS011;50274;45.640;11.756;2022-07-04T08:13:07;5.07;;;2.20;;
63016;SDS011;50274;45.640;11.756;2022-07-04T08:15:33;4.68;;;1.92;;
63016;SDS011;50274;45.640;11.756;2022-07-04T08:17:59;5.33;;;2.03;;
63016;SDS011;50274;45.640;11.756;2022-07-04T08:20:25;5.10;;;2.25;;
63016;SDS011;50274;45.640;11.756;2022-07-04T08:22:51;6.22;;;2.33;;
63016;SDS011;50274;45.640;11.756;2022-07-04T08:25:17;5.27;;;2.20;;
63016;SDS011;50274;45.640;11.756;2022-07-04T08:27:43;5.78;;;2.20;;
63016;SDS011;50274;45.640;11.756;2022-07-04T08:30:09;8.25;;;2.40;;
63016;SDS011;50274;45.640;11.756;2022-07-04T08:32:35;4.63;;;1.90;;
63016;SDS011;50274;45.640;11.756;2022-07-04T08:35:02;4.03;;;1.90;;
63016;SDS011;50274;45.640;11.756;2022-07-04T08:37:28;8.80;;;2.38;;
63016;SDS011;50274;45.640;11.756;2022-07-04T08:39:54;5.47;;;2.35;;
63016;SDS011;50274;45.640;11.756;2022-07-04T08:42:21;6.18;;;1.90;;
63016;SDS011;50274;45.640;11.756;2022-07-04T08:44:50;4.90;;;2.20;;
63016;SDS011;50274;45.640;11.756;2022-07-04T08:47:21;6.33;;;2.37;;
63016;SDS011;50274;45.640;11.756;2022-07-04T08:49:52;6.55;;;2.20;;
63016;SDS011;50274;45.640;11.756;2022-07-04T08:52:30;6.72;;;2.40;;
63016;SDS011;50274;45.640;11.756;2022-07-04T08:55:02;6.70;;;2.60;;
63016;SDS011;50274;45.640;11.756;2022-07-04T08:57:47;6.55;;;2.80;;
63016;SDS011;50274;45.640;11.756;2022-07-04T09:00:33;6.47;;;2.33;;
63016;SDS011;50274;45.640;11.756;2022-07-04T09:03:01;5.75;;;2.72;;
63016;SDS011;50274;45.640;11.756;2022-07-04T09:05:28;6.70;;;2.50;;
63016;SDS011;50274;45.640;11.756;2022-07-04T09:07:57;7.93;;;2.63;;
63016;SDS011;50274;45.640;11.756;2022-07-04T09:10:23;6.68;;;2.90;;
63016;SDS011;50274;45.640;11.756;2022-07-04T09:12:50;6.20;;;2.93;;
63016;SDS011;50274;45.640;11.756;2022-07-04T09:15:16;6.70;;;2.80;;
63016;SDS011;50274;45.640;11.756;2022-07-04T09:17:42;4.97;;;2.50;;
63016;SDS011;50274;45.640;11.756;2022-07-04T09:22:45;6.93;;;2.60;;
63016;SDS011;50274;45.640;11.756;2022-07-04T09:25:12;5.93;;;2.60;;
63016;SDS011;50274;45.640;11.756;2022-07-04T09:27:44;8.57;;;3.13;;
63016;SDS011;50274;45.640;11.756;2022-07-04T09:30:15;9.60;;;3.03;;
63016;SDS011;50274;45.640;11.756;2022-07-04T09:35:19;4.93;;;2.58;;
63016;SDS011;50274;45.640;11.756;2022-07-04T09:37:50;7.27;;;2.37;;
63016;SDS011;50274;45.640;11.756;2022-07-04T09:40:23;7.43;;;3.00;;
63016;SDS011;50274;45.640;11.756;2022-07-04T09:42:54;7.38;;;2.90;;
63016;SDS011;50274;45.640;11.756;2022-07-04T09:45:22;9.27;;;3.15;;
63016;SDS011;50274;45.640;11.756;2022-07-04T09:47:58;5.50;;;2.72;;
63016;SDS011;50274;45.640;11.756;2022-07-04T09:50:25;7.27;;;2.77;;
63016;SDS011;50274;45.640;11.756;2022-07-04T09:52:57;5.85;;;2.70;;
63016;SDS011;50274;45.640;11.756;2022-07-04T09:58:04;6.80;;;2.50;;
63016;SDS011;50274;45.640;11.756;2022-07-04T10:00:35;7.32;;;2.90;;
63016;SDS011;50274;45.640;11.756;2022-07-04T10:03:24;7.07;;;2.30;;
63016;SDS011;50274;45.640;11.756;2022-07-04T10:06:03;8.00;;;2.25;;
63016;SDS011;50274;45.640;11.756;2022-07-04T10:08:37;6.63;;;2.70;;
63016;SDS011;50274;45.640;11.756;2022-07-04T10:11:04;7.40;;;2.60;;
63016;SDS011;50274;45.640;11.756;2022-07-04T10:13:31;5.22;;;2.33;;
63016;SDS011;50274;45.640;11.756;2022-07-04T10:15:57;6.70;;;2.53;;
63016;SDS011;50274;45.640;11.756;2022-07-04T10:18:23;5.18;;;2.60;;
63016;SDS011;50274;45.640;11.756;2022-07-04T10:20:51;5.38;;;2.30;;
63016;SDS011;50274;45.640;11.756;2022-07-04T10:23:18;5.65;;;2.30;;
63016;SDS011;50274;45.640;11.756;2022-07-04T10:25:51;6.30;;;2.45;;
63016;SDS011;50274;45.640;11.756;2022-07-04T10:28:19;6.27;;;2.77;;
63016;SDS011;50274;45.640;11.756;2022-07-04T10:30:55;5.57;;;2.75;;
63016;SDS011;50274;45.640;11.756;2022-07-04T10:33:23;4.93;;;2.30;;
63016;SDS011;50274;45.640;11.756;2022-07-04T10:35:54;5.82;;;2.25;;
63016;SDS011;50274;45.640;11.756;2022-07-04T10:38:22;5.82;;;2.45;;
63016;SDS011;50274;45.640;11.756;2022-07-04T10:40:53;9.90;;;2.20;;
63016;SDS011;50274;45.640;11.756;2022-07-04T10:43:52;5.70;;;2.47;;
63016;SDS011;50274;45.640;11.756;2022-07-04T10:59:31;6.72;;;2.70;;
63016;SDS011;50274;45.640;11.756;2022-07-04T11:07:18;5.53;;;2.47;;
63016;SDS011;50274;45.640;11.756;2022-07-04T11:17:56;6.93;;;2.50;;
63016;SDS011;50274;45.640;11.756;2022-07-04T11:20:27;6.28;;;2.33;;
63016;SDS011;50274;45.640;11.756;2022-07-04T11:23:05;5.45;;;2.45;;
63016;SDS011;50274;45.640;11.756;2022-07-04T11:25:32;8.77;;;2.33;;
63016;SDS011;50274;45.640;11.756;2022-07-04T11:28:16;6.47;;;2.33;;
63016;SDS011;50274;45.640;11.756;2022-07-04T11:30:50;5.37;;;2.20;;
63016;SDS011;50274;45.640;11.756;2022-07-04T11:33:17;6.13;;;2.38;;
63016;SDS011;50274;45.640;11.756;2022-07-04T11:35:44;5.90;;;2.17;;
63016;SDS011;50274;45.640;11.756;2022-07-04T11:38:26;5.72;;;1.80;;
63016;SDS011;50274;45.640;11.756;2022-07-04T11:41:08;4.18;;;1.45;;
63016;SDS011;50274;45.640;11.756;2022-07-04T11:43:52;4.60;;;1.70;;
63016;SDS011;50274;45.640;11.756;2022-07-04T11:46:37;5.78;;;1.63;;
63016;SDS011;50274;45.640;11.756;2022-07-04T11:49:07;6.63;;;1.80;;
63016;SDS011;50274;45.640;11.756;2022-07-04T11:51:43;5.32;;;1.73;;
63016;SDS011;50274;45.640;11.756;2022-07-04T11:54:12;4.67;;;1.73;;
63016;SDS011;50274;45.640;11.756;2022-07-04T11:56:37;3.85;;;1.58;;
63016;SDS011;50274;45.640;11.756;2022-07-04T11:59:13;4.00;;;1.55;;
63016;SDS011;50274;45.640;11.756;2022-07-04T12:01:44;5.85;;;1.67;;
63016;SDS011;50274;45.640;11.756;2022-07-04T12:04:14;5.37;;;1.80;;
63016;SDS011;50274;45.640;11.756;2022-07-04T12:06:41;4.70;;;1.85;;
63016;SDS011;50274;45.640;11.756;2022-07-04T12:09:07;4.78;;;1.80;;
63016;SDS011;50274;45.640;11.756;2022-07-04T12:11:53;3.78;;;1.63;;
63016;SDS011;50274;45.640;11.756;2022-07-04T12:14:21;6.55;;;1.60;;
63016;SDS011;50274;45.640;11.756;2022-07-04T12:16:47;6.53;;;1.43;;
63016;SDS011;50274;45.640;11.756;2022-07-04T12:19:13;7.25;;;1.65;;
63016;SDS011;50274;45.640;11.756;2022-07-04T12:21:39;4.88;;;1.70;;
63016;SDS011;50274;45.640;11.756;2022-07-04T12:24:07;7.03;;;2.20;;
63016;SDS011;50274;45.640;11.756;2022-07-04T12:26:33;4.93;;;1.60;;
63016;SDS011;50274;45.640;11.756;2022-07-04T12:29:09;6.35;;;1.70;;
63016;SDS011;50274;45.640;11.756;2022-07-04T12:31:41;6.32;;;1.75;;
63016;SDS011;50274;45.640;11.756;2022-07-04T12:34:14;5.82;;;1.83;;
63016;SDS011;50274;45.640;11.756;2022-07-04T12:36:51;3.73;;;1.20;;
63016;SDS011;50274;45.640;11.756;2022-07-04T12:39:37;4.15;;;1.63;;
63016;SDS011;50274;45.640;11.756;2022-07-04T12:42:08;5.85;;;1.40;;
63016;SDS011;50274;45.640;11.756;2022-07-04T12:44:43;5.53;;;1.40;;
63016;SDS011;50274;45.640;11.756;2022-07-04T12:47:10;4.18;;;1.40;;
63016;SDS011;50274;45.640;11.756;2022-07-04T12:49:41;6.43;;;1.10;;
63016;SDS011;50274;45.640;11.756;2022-07-04T12:52:09;4.45;;;1.20;;
63016;SDS011;50274;45.640;11.756;2022-07-04T12:54:37;5.75;;;1.23;;
63016;SDS011;50274;45.640;11.756;2022-07-04T12:59:39;7.05;;;1.38;;
63016;SDS011;50274;45.640;11.756;2022-07-04T13:02:06;3.50;;;0.90;;
63016;SDS011;50274;45.640;11.756;2022-07-04T13:04:33;6.88;;;1.20;;
63016;SDS011;50274;45.640;11.756;2022-07-04T13:07:00;3.97;;;1.10;;
63016;SDS011;50274;45.640;11.756;2022-07-04T13:09:41;3.60;;;1.10;;
63016;SDS011;50274;45.640;11.756;2022-07-04T13:12:08;4.68;;;1.20;;
63016;SDS011;50274;45.640;11.756;2022-07-04T13:14:49;3.53;;;1.00;;
63016;SDS011;50274;45.640;11.756;2022-07-04T13:17:19;5.45;;;1.00;;
63016;SDS011;50274;45.640;11.756;2022-07-04T13:19:45;3.92;;;1.00;;
63016;SDS011;50274;45.640;11.756;2022-07-04T13:22:11;6.97;;;1.00;;
63016;SDS011;50274;45.640;11.756;2022-07-04T13:24:38;5.00;;;1.00;;
63016;SDS011;50274;45.640;11.756;2022-07-04T13:27:05;6.10;;;1.13;;
63016;SDS011;50274;45.640;11.756;2022-07-04T13:29:31;6.18;;;1.00;;
63016;SDS011;50274;45.640;11.756;2022-07-04T13:31:56;8.98;;;1.50;;
63016;SDS011;50274;45.640;11.756;2022-07-04T13:34:22;5.20;;;1.20;;
63016;SDS011;50274;45.640;11.756;2022-07-04T13:36:48;3.40;;;0.75;;
63016;SDS011;50274;45.640;11.756;2022-07-04T13:39:16;3.58;;;1.00;;
63016;SDS011;50274;45.640;11.756;2022-07-04T13:41:42;6.27;;;1.27;;
63016;SDS011;50274;45.640;11.756;2022-07-04T13:44:08;4.68;;;1.30;;
63016;SDS011;50274;45.640;11.756;2022-07-04T13:46:34;7.05;;;1.20;;
63016;SDS011;50274;45.640;11.756;2022-07-04T13:49:02;4.43;;;1.10;;
63016;SDS011;50274;45.640;11.756;2022-07-04T13:51:28;4.93;;;1.10;;
63016;SDS011;50274;45.640;11.756;2022-07-04T13:53:54;4.67;;;1.20;;
63016;SDS011;50274;45.640;11.756;2022-07-04T13:56:20;6.80;;;1.20;;
63016;SDS011;50274;45.640;11.756;2022-07-04T13:58:46;4.68;;;1.20;;
63016;SDS011;50274;45.640;11.756;2022-07-04T14:01:13;5.68;;;1.20;;
63016;SDS011;50274;45.640;11.756;2022-07-04T14:03:44;3.73;;;1.20;;
63016;SDS011;50274;45.640;11.756;2022-07-04T14:06:10;4.88;;;1.00;;
63016;SDS011;50274;45.640;11.756;2022-07-04T14:08:36;4.97;;;0.98;;
63016;SDS011;50274;45.640;11.756;2022-07-04T14:11:02;6.40;;;1.02;;
63016;SDS011;50274;45.640;11.756;2022-07-04T14:13:29;8.40;;;0.90;;
63016;SDS011;50274;45.640;11.756;2022-07-04T14:15:55;4.63;;;1.10;;
63016;SDS011;50274;45.640;11.756;2022-07-04T14:18:21;3.58;;;0.90;;
63016;SDS011;50274;45.640;11.756;2022-07-04T14:20:47;3.10;;;1.00;;
63016;SDS011;50274;45.640;11.756;2022-07-04T14:23:15;2.75;;;0.90;;
63016;SDS011;50274;45.640;11.756;2022-07-04T14:26:04;4.00;;;1.10;;
63016;SDS011;50274;45.640;11.756;2022-07-04T14:28:30;3.00;;;0.90;;
63016;SDS011;50274;45.640;11.756;2022-07-04T14:30:57;4.65;;;0.93;;
63016;SDS011;50274;45.640;11.756;2022-07-04T14:33:23;3.85;;;1.05;;
63016;SDS011;50274;45.640;11.756;2022-07-04T14:35:48;5.20;;;0.90;;
63016;SDS011;50274;45.640;11.756;2022-07-04T14:38:14;4.25;;;1.10;;
63016;SDS011;50274;45.640;11.756;2022-07-04T14:40:41;3.95;;;0.98;;
63016;SDS011;50274;45.640;11.756;2022-07-04T14:43:10;4.20;;;0.95;;
63016;SDS011;50274;45.640;11.756;2022-07-04T14:45:36;4.83;;;1.20;;
63016;SDS011;50274;45.640;11.756;2022-07-04T14:48:03;3.28;;;1.05;;
63016;SDS011;50274;45.640;11.756;2022-07-04T14:50:29;3.58;;;1.05;;
63016;SDS011;50274;45.640;11.756;2022-07-04T14:52:55;3.43;;;0.80;;
63016;SDS011;50274;45.640;11.756;2022-07-04T14:55:20;4.37;;;0.87;;
63016;SDS011;50274;45.640;11.756;2022-07-04T14:57:46;4.10;;;0.80;;
63016;SDS011;50274;45.640;11.756;2022-07-04T15:00:12;3.47;;;0.97;;
63016;SDS011;50274;45.640;11.756;2022-07-04T15:02:38;3.60;;;0.80;;
63016;SDS011;50274;45.640;11.756;2022-07-04T15:05:04;6.15;;;0.88;;
63016;SDS011;50274;45.640;11.756;2022-07-04T15:07:30;3.50;;;0.80;;
63016;SDS011;50274;45.640;11.756;2022-07-04T15:09:56;4.07;;;0.98;;
63016;SDS011;50274;45.640;11.756;2022-07-04T15:12:21;4.95;;;0.90;;
63016;SDS011;50274;45.640;11.756;2022-07-04T15:14:47;4.03;;;0.90;;